createdAt,value
2023-03-20T00:01:31.853Z,26.90
2023-03-20T00:04:00.162Z,27.00
2023-03-20T00:06:29.478Z,26.90
2023-03-20T00:08:57.980Z,27.00
2023-03-20T00:11:30.930Z,26.90
2023-03-20T00:14:06.029Z,26.90
2023-03-20T00:16:39.852Z,26.90
2023-03-20T00:19:15.191Z,26.90
2023-03-20T00:21:43.756Z,26.90
2023-03-20T00:24:11.941Z,26.90
2023-03-20T00:26:41.150Z,26.90
2023-03-20T00:29:21.915Z,26.90
2023-03-20T00:31:50.278Z,26.90
2023-03-20T00:34:20.932Z,26.90
2023-03-20T00:36:49.384Z,26.80
2023-03-20T00:39:17.617Z,26.90
2023-03-20T00:41:59.645Z,26.80
2023-03-20T00:44:31.099Z,26.80
2023-03-20T00:47:02.364Z,26.80
2023-03-20T00:49:33.640Z,26.80
2023-03-20T00:52:04.422Z,26.80
2023-03-20T00:54:33.318Z,26.80
2023-03-20T00:57:09.680Z,26.80
2023-03-20T00:59:41.721Z,26.80
2023-03-20T01:02:10.633Z,26.80
2023-03-20T01:04:42.020Z,26.80
2023-03-20T01:07:15.296Z,26.80
2023-03-20T01:09:43.650Z,26.80
2023-03-20T01:12:13.520Z,26.80
2023-03-20T01:14:43.810Z,26.80
2023-03-20T01:17:20.126Z,26.80
2023-03-20T01:19:48.591Z,26.80
2023-03-20T01:22:17.384Z,26.70
2023-03-20T01:24:46.076Z,26.70
2023-03-20T01:27:16.398Z,26.70
2023-03-20T01:29:45.246Z,26.70
2023-03-20T01:32:17.549Z,26.80
2023-03-20T01:34:49.350Z,26.70
2023-03-20T01:37:28.696Z,26.70
2023-03-20T01:40:02.183Z,26.70
2023-03-20T01:42:33.912Z,26.70
2023-03-20T01:45:02.321Z,26.70
2023-03-20T01:47:31.031Z,26.60
2023-03-20T01:50:23.287Z,26.70
2023-03-20T01:53:08.706Z,26.70
2023-03-20T01:55:44.145Z,26.70
2023-03-20T01:58:27.648Z,26.70
2023-03-20T02:00:55.693Z,26.70
2023-03-20T02:03:24.762Z,26.70
2023-03-20T02:06:31.857Z,26.70
2023-03-20T02:09:15.771Z,26.70
2023-03-20T02:11:46.992Z,26.70
2023-03-20T02:14:19.113Z,26.70
2023-03-20T02:16:59.308Z,26.70
2023-03-20T02:20:22.663Z,26.70
2023-03-20T02:23:28.399Z,26.70
2023-03-20T02:26:30.531Z,26.60
2023-03-20T02:29:23.937Z,26.60
2023-03-20T02:31:52.409Z,26.60
2023-03-20T02:35:08.748Z,26.60
2023-03-20T02:38:07.576Z,26.60
2023-03-20T02:40:54.167Z,26.60
2023-03-20T02:43:38.415Z,26.60
2023-03-20T02:46:15.965Z,26.60
2023-03-20T02:48:53.754Z,26.60
2023-03-20T02:51:31.499Z,26.60
2023-03-20T02:54:29.171Z,26.60
2023-03-20T02:57:26.971Z,26.60
2023-03-20T03:00:09.527Z,26.60
2023-03-20T03:03:04.256Z,26.60
2023-03-20T03:05:45.137Z,26.60
2023-03-20T03:08:18.456Z,26.60
2023-03-20T03:10:52.607Z,26.50
2023-03-20T03:13:25.558Z,26.60
2023-03-20T03:15:58.376Z,26.60
2023-03-20T03:18:27.710Z,26.60
2023-03-20T03:21:00.518Z,26.60
2023-03-20T03:23:36.645Z,26.60
2023-03-20T03:26:07.672Z,26.60
2023-03-20T03:28:46.756Z,26.60
2023-03-20T03:31:18.701Z,26.50
2023-03-20T03:33:51.022Z,26.50
2023-03-20T03:36:25.055Z,26.50
2023-03-20T03:39:05.575Z,26.50
2023-03-20T03:41:36.870Z,26.50
2023-03-20T03:44:18.025Z,26.50
2023-03-20T03:46:54.958Z,26.50
2023-03-20T03:49:31.587Z,26.50
2023-03-20T03:52:07.206Z,26.50
2023-03-20T03:54:39.403Z,26.50
2023-03-20T03:57:42.290Z,26.60
2023-03-20T04:00:21.049Z,26.50
2023-03-20T04:02:53.601Z,26.50
2023-03-20T04:05:23.481Z,26.60
2023-03-20T04:07:58.747Z,26.50
2023-03-20T04:10:27.070Z,26.50
2023-03-20T04:12:55.347Z,26.50
2023-03-20T04:15:23.576Z,26.50
2023-03-20T04:17:51.856Z,26.50
2023-03-20T04:20:20.450Z,26.50
2023-03-20T04:22:49.221Z,26.50
2023-03-20T04:25:22.721Z,26.50
2023-03-20T04:27:53.758Z,26.50
2023-03-20T04:30:30.829Z,26.40
2023-03-20T04:33:17.298Z,26.40
2023-03-20T04:36:06.195Z,26.40
2023-03-20T04:38:34.439Z,26.40
2023-03-20T04:41:04.604Z,26.40
2023-03-20T04:43:33.045Z,26.30
2023-03-20T04:46:01.673Z,26.30
2023-03-20T04:48:30.222Z,26.30
2023-03-20T04:50:58.761Z,26.30
2023-03-20T04:53:38.660Z,26.30
2023-03-20T04:56:07.447Z,26.30
2023-03-20T04:58:36.361Z,26.30
2023-03-20T05:01:06.149Z,26.20
2023-03-20T05:03:34.400Z,26.20
2023-03-20T05:06:02.952Z,26.20
2023-03-20T05:08:31.803Z,26.10
2023-03-20T05:11:02.010Z,26.20
2023-03-20T05:13:48.946Z,26.10
2023-03-20T05:16:26.206Z,26.10
2023-03-20T05:19:21.037Z,26.00
2023-03-20T05:22:09.412Z,26.00
2023-03-20T05:25:00.093Z,26.00
2023-03-20T05:27:47.547Z,25.90
2023-03-20T05:30:34.083Z,25.80
2023-03-20T05:33:23.729Z,25.80
2023-03-20T05:36:12.163Z,25.80
2023-03-20T05:39:03.619Z,25.80
2023-03-20T05:41:54.837Z,25.80
2023-03-20T05:44:40.851Z,25.70
2023-03-20T05:47:35.087Z,25.70
2023-03-20T05:50:17.364Z,25.60
2023-03-20T05:53:08.238Z,25.60
2023-03-20T05:55:48.248Z,25.60
2023-03-20T05:58:47.187Z,25.60
2023-03-20T06:01:40.670Z,25.60
2023-03-20T06:04:26.265Z,25.60
2023-03-20T06:07:12.804Z,25.60
2023-03-20T06:09:44.292Z,25.60
2023-03-20T06:26:01.100Z,25.50
2023-03-20T06:28:31.084Z,25.60
2023-03-20T06:31:05.815Z,25.60
2023-03-20T06:33:35.011Z,25.60
2023-03-20T06:36:04.488Z,25.50
2023-03-20T06:38:33.735Z,25.60
2023-03-20T06:41:07.996Z,25.60
2023-03-20T06:43:37.071Z,25.50
2023-03-20T06:46:06.075Z,25.50
2023-03-20T06:48:35.180Z,25.40
2023-03-20T06:51:06.849Z,25.50
2023-03-20T06:53:40.200Z,25.50
2023-03-20T06:56:14.081Z,25.40
2023-03-20T06:58:43.032Z,25.40
2023-03-20T07:01:16.803Z,25.40
2023-03-20T07:03:45.297Z,25.50
2023-03-20T07:06:14.799Z,25.50
2023-03-20T07:08:43.655Z,25.50
2023-03-20T07:11:12.240Z,25.50
2023-03-20T07:13:40.980Z,25.50
2023-03-20T07:16:20.473Z,25.50
2023-03-20T07:18:49.087Z,25.50
2023-03-20T07:21:23.587Z,25.50
2023-03-20T07:23:52.887Z,25.50
2023-03-20T07:26:21.220Z,25.50
2023-03-20T07:28:49.466Z,25.50
2023-03-20T07:31:25.436Z,25.50
2023-03-20T07:34:23.103Z,25.50
2023-03-20T07:36:52.482Z,25.50
2023-03-20T07:39:22.800Z,25.50
2023-03-20T07:42:19.684Z,25.60
2023-03-20T07:44:58.650Z,25.60
2023-03-20T07:47:27.113Z,25.70
2023-03-20T07:49:55.344Z,25.70
2023-03-20T07:52:24.273Z,25.70
2023-03-20T07:54:54.213Z,25.80
2023-03-20T07:57:22.654Z,25.80
2023-03-20T07:59:51.017Z,25.80
2023-03-20T08:02:19.600Z,25.90
2023-03-20T08:04:47.994Z,25.90
2023-03-20T08:07:16.437Z,25.90
2023-03-20T08:09:45.050Z,26.00
2023-03-20T08:12:13.433Z,26.00
2023-03-20T08:14:41.719Z,26.00
2023-03-20T08:17:14.879Z,26.10
2023-03-20T08:19:44.969Z,26.10
2023-03-20T08:22:13.453Z,26.10
2023-03-20T08:24:41.871Z,26.10
2023-03-20T08:27:10.107Z,26.10
2023-03-20T08:29:38.624Z,26.10
2023-03-20T08:32:07.181Z,26.10
2023-03-20T08:34:35.432Z,26.20
2023-03-20T08:37:07.477Z,26.20
2023-03-20T08:39:35.721Z,26.20
2023-03-20T08:42:04.138Z,26.10
2023-03-20T08:44:32.515Z,26.20
2023-03-20T08:47:00.622Z,26.10
2023-03-20T08:49:29.084Z,26.10
2023-03-20T08:51:57.322Z,26.10
2023-03-20T08:54:25.596Z,26.00
2023-03-20T08:56:53.945Z,26.10
2023-03-20T08:59:22.323Z,26.10
2023-03-20T09:01:50.746Z,26.20
2023-03-20T09:04:19.376Z,26.30
2023-03-20T09:06:48.094Z,26.40
2023-03-20T09:09:16.359Z,26.50
2023-03-20T09:11:44.600Z,26.50
2023-03-20T09:14:13.336Z,26.60
2023-03-20T09:16:41.665Z,26.60
2023-03-20T09:19:10.210Z,26.70
2023-03-20T09:21:38.535Z,26.70
2023-03-20T09:24:07.436Z,26.70
2023-03-20T09:26:35.759Z,26.80
2023-03-20T09:29:04.467Z,26.90
2023-03-20T09:31:33.019Z,27.00
2023-03-20T09:34:01.426Z,27.10
2023-03-20T09:36:29.807Z,27.10
2023-03-20T09:38:58.208Z,27.10
2023-03-20T09:41:28.223Z,27.20
2023-03-20T09:44:26.786Z,27.20
2023-03-20T09:47:20.282Z,27.20
2023-03-20T09:50:23.694Z,27.20
2023-03-20T09:53:16.961Z,27.10
2023-03-20T09:55:45.903Z,27.10
2023-03-20T09:58:21.284Z,27.10
2023-03-20T10:00:50.031Z,27.00
2023-03-20T10:03:43.633Z,27.10
2023-03-20T10:06:17.397Z,27.10
2023-03-20T10:08:47.189Z,27.20
2023-03-20T10:11:21.391Z,27.20
2023-03-20T10:13:56.387Z,27.30
2023-03-20T10:16:48.572Z,27.40
2023-03-20T10:19:22.691Z,27.50
2023-03-20T10:22:13.380Z,27.60
2023-03-20T10:24:53.081Z,27.60
2023-03-20T10:27:34.462Z,27.60
2023-03-20T10:30:35.459Z,27.60
2023-03-20T10:33:22.386Z,27.70
2023-03-20T10:36:18.060Z,27.80
2023-03-20T10:38:46.437Z,27.90
2023-03-20T10:41:21.904Z,28.10
2023-03-20T10:43:53.416Z,28.10
2023-03-20T10:46:25.075Z,28.10
2023-03-20T10:49:05.206Z,28.20
2023-03-20T10:51:59.238Z,28.20
2023-03-20T10:54:42.978Z,28.30
2023-03-20T10:57:32.340Z,28.40
2023-03-20T11:00:01.237Z,28.40
2023-03-20T11:02:31.230Z,28.40
2023-03-20T11:05:20.627Z,28.40
2023-03-20T11:07:51.991Z,28.40
2023-03-20T11:10:20.351Z,28.40
2023-03-20T11:12:50.851Z,28.40
2023-03-20T11:15:24.950Z,28.40
2023-03-20T11:18:01.736Z,28.50
2023-03-20T11:20:54.621Z,28.50
2023-03-20T11:23:28.768Z,28.60
2023-03-20T11:26:06.320Z,28.70
2023-03-20T11:28:42.666Z,28.70
2023-03-20T11:31:14.061Z,28.70
2023-03-20T11:33:45.850Z,28.70
2023-03-20T11:36:25.893Z,28.70
2023-03-20T11:39:04.373Z,28.70
2023-03-20T11:41:33.644Z,28.70
2023-03-20T11:44:01.967Z,28.90
2023-03-20T11:46:30.205Z,28.90
2023-03-20T11:49:28.013Z,29.00
2023-03-20T11:52:02.228Z,29.00
2023-03-20T11:54:31.485Z,28.90
2023-03-20T11:57:01.189Z,28.90
2023-03-20T11:59:35.078Z,28.90
2023-03-20T12:02:14.516Z,29.00
2023-03-20T12:04:42.979Z,29.00
2023-03-20T12:07:27.266Z,29.10
2023-03-20T12:10:06.167Z,29.20
2023-03-20T12:12:52.468Z,29.20
2023-03-20T12:15:26.472Z,29.20
2023-03-20T12:18:06.592Z,29.20
2023-03-20T12:21:18.676Z,29.20
2023-03-20T12:23:58.821Z,29.30
2023-03-20T12:26:55.403Z,29.40
2023-03-20T12:29:30.854Z,29.40
2023-03-20T12:32:15.988Z,29.20
2023-03-20T12:34:54.121Z,29.20
2023-03-20T12:37:23.431Z,29.10
2023-03-20T12:40:01.310Z,29.00
2023-03-20T12:42:42.846Z,29.10
2023-03-20T12:45:23.547Z,29.20
2023-03-20T12:48:19.335Z,29.00
2023-03-20T12:51:13.818Z,29.00
2023-03-20T12:53:53.798Z,29.00
2023-03-20T12:56:52.113Z,29.00
2023-03-20T12:59:35.652Z,29.00
2023-03-20T13:02:42.482Z,29.10
2023-03-20T13:05:22.903Z,29.20
2023-03-20T13:08:06.261Z,29.30
2023-03-20T13:10:52.003Z,29.40
2023-03-20T13:13:41.094Z,29.50
2023-03-20T13:16:53.917Z,29.60
2023-03-20T13:19:40.381Z,29.60
2023-03-20T13:22:20.787Z,29.60
2023-03-20T13:24:56.219Z,29.50
2023-03-20T13:27:43.452Z,29.60
2023-03-20T13:30:31.648Z,29.50
2023-03-20T13:33:21.340Z,29.50
2023-03-20T13:36:20.851Z,29.60
2023-03-20T13:38:54.878Z,29.50
2023-03-20T13:41:25.145Z,29.50
2023-03-20T13:44:05.115Z,29.30
2023-03-20T13:47:02.468Z,29.30
2023-03-20T13:50:02.924Z,29.40
2023-03-20T13:52:41.196Z,29.50
2023-03-20T13:55:18.831Z,29.60
2023-03-20T13:58:08.963Z,29.70
2023-03-20T14:00:49.811Z,29.70
2023-03-20T14:03:38.373Z,29.60
2023-03-20T14:06:35.306Z,29.60
2023-03-20T14:09:03.659Z,29.50
2023-03-20T14:11:40.185Z,29.60
2023-03-20T14:14:13.903Z,29.50
2023-03-20T14:16:43.025Z,29.70
2023-03-20T14:19:24.963Z,29.70
2023-03-20T14:21:57.502Z,29.70
2023-03-20T14:24:28.056Z,29.70
2023-03-20T14:27:05.798Z,29.70
2023-03-20T14:29:39.017Z,29.80
2023-03-20T14:32:16.329Z,29.80
2023-03-20T14:34:53.661Z,29.90
2023-03-20T14:37:59.835Z,29.80
2023-03-20T14:40:32.081Z,30.00
2023-03-20T14:43:05.161Z,29.90
2023-03-20T14:45:38.017Z,29.90
2023-03-20T14:48:19.506Z,30.00
2023-03-20T14:50:47.656Z,30.10
2023-03-20T14:53:34.233Z,30.20
2023-03-20T14:56:15.484Z,30.20
2023-03-20T14:58:56.295Z,30.10
2023-03-20T15:01:41.206Z,30.20
2023-03-20T15:04:23.722Z,30.20
2023-03-20T15:07:38.285Z,30.40
2023-03-20T15:10:08.408Z,30.20
2023-03-20T15:12:38.829Z,30.40
2023-03-20T15:15:09.241Z,30.20
2023-03-20T15:17:46.847Z,30.20
2023-03-20T15:20:24.533Z,30.40
2023-03-20T15:22:58.348Z,30.50
2023-03-20T15:25:33.816Z,30.50
2023-03-20T15:28:05.389Z,30.50
2023-03-20T15:30:38.076Z,30.50
2023-03-20T15:33:22.697Z,30.60
2023-03-20T15:35:51.593Z,30.70
2023-03-20T15:38:20.972Z,30.80
2023-03-20T15:40:51.320Z,31.00
2023-03-20T15:43:27.440Z,31.20
2023-03-20T15:46:16.355Z,31.30
2023-03-20T15:48:50.272Z,31.60
2023-03-20T15:51:22.984Z,31.60
2023-03-20T15:53:52.767Z,31.60
2023-03-20T15:56:26.178Z,31.40
2023-03-20T15:58:56.519Z,31.30
2023-03-20T16:01:26.948Z,31.60
2023-03-20T16:04:00.190Z,32.00
2023-03-20T16:06:29.073Z,32.30
2023-03-20T16:09:02.795Z,32.50
2023-03-20T16:11:42.715Z,32.40
2023-03-20T16:14:23.493Z,32.20
2023-03-20T16:16:55.335Z,32.70
2023-03-20T16:19:25.790Z,33.00
2023-03-20T16:22:19.916Z,32.70
2023-03-20T16:24:55.560Z,32.60
2023-03-20T16:27:30.869Z,32.60
2023-03-20T16:29:59.972Z,32.50
2023-03-20T16:32:50.461Z,32.60
2023-03-20T16:35:22.270Z,33.00
2023-03-20T16:37:56.039Z,32.90
2023-03-20T16:40:32.163Z,32.90
2023-03-20T16:43:20.230Z,32.80
2023-03-20T16:45:54.231Z,32.30
2023-03-20T16:48:32.875Z,32.80
2023-03-20T16:51:19.048Z,32.50
2023-03-20T16:53:50.347Z,32.50
2023-03-20T16:56:33.468Z,32.10
2023-03-20T16:59:17.858Z,32.80
2023-03-20T17:01:48.107Z,33.00
2023-03-20T17:04:37.216Z,33.20
2023-03-20T17:07:19.734Z,33.00
2023-03-20T17:10:13.293Z,32.90
2023-03-20T17:12:42.657Z,33.10
2023-03-20T17:15:19.292Z,32.90
2023-03-20T17:17:47.995Z,32.60
2023-03-20T17:20:25.276Z,32.20
2023-03-20T17:22:54.273Z,32.20
2023-03-20T17:25:23.044Z,32.10
2023-03-20T17:27:51.642Z,32.30
2023-03-20T17:30:23.319Z,32.30
2023-03-20T17:32:51.799Z,32.10
2023-03-20T17:35:20.344Z,32.00
2023-03-20T17:37:48.890Z,32.10
2023-03-20T17:40:23.571Z,31.90
2023-03-20T17:42:52.040Z,31.50
2023-03-20T17:45:21.181Z,31.20
2023-03-20T17:47:49.889Z,31.00
2023-03-20T17:50:20.514Z,31.00
2023-03-20T17:52:48.929Z,31.10
2023-03-20T17:55:17.520Z,31.00
2023-03-20T17:57:46.215Z,31.00
2023-03-20T18:00:20.233Z,30.90
2023-03-20T18:02:49.413Z,30.50
2023-03-20T18:05:19.781Z,30.40
2023-03-20T18:07:48.395Z,30.20
2023-03-20T18:10:30.197Z,30.10
2023-03-20T18:12:59.381Z,30.00
2023-03-20T18:15:27.594Z,29.80
2023-03-20T18:17:56.097Z,29.80
2023-03-20T18:20:33.231Z,29.60
2023-03-20T18:23:01.593Z,29.40
2023-03-20T18:25:30.347Z,29.10
2023-03-20T18:28:00.778Z,29.00
2023-03-20T18:30:37.616Z,29.00
2023-03-20T18:33:07.149Z,28.80
